sensor_id;sensor_type;location;lat;lon;timestamp;P1;durP1;ratioP1;P2;durP2;ratioP2
69835;SDS011;57132;51.972;4.450;2022-07-29T00:01:48;868.00;;;802.35;;
69835;SDS011;57132;51.972;4.450;2022-07-29T00:04:13;869.72;;;803.67;;
69835;SDS011;57132;51.972;4.450;2022-07-29T00:06:39;868.38;;;802.80;;
69835;SDS011;57132;51.972;4.450;2022-07-29T00:09:04;846.15;;;783.17;;
69835;SDS011;57132;51.972;4.450;2022-07-29T00:11:30;844.20;;;782.03;;
69835;SDS011;57132;51.972;4.450;2022-07-29T00:13:55;841.80;;;780.15;;
69835;SDS011;57132;51.972;4.450;2022-07-29T00:16:21;856.85;;;794.10;;
69835;SDS011;57132;51.972;4.450;2022-07-29T00:18:46;853.67;;;791.45;;
69835;SDS011;57132;51.972;4.450;2022-07-29T00:21:11;839.25;;;778.38;;
69835;SDS011;57132;51.972;4.450;2022-07-29T00:23:37;822.35;;;763.13;;
69835;SDS011;57132;51.972;4.450;2022-07-29T00:26:02;844.22;;;782.22;;
69835;SDS011;57132;51.972;4.450;2022-07-29T00:28:27;852.75;;;790.05;;
69835;SDS011;57132;51.972;4.450;2022-07-29T00:30:53;848.35;;;786.53;;
69835;SDS011;57132;51.972;4.450;2022-07-29T00:33:18;844.88;;;783.38;;
69835;SDS011;57132;51.972;4.450;2022-07-29T00:35:43;850.08;;;787.92;;
69835;SDS011;57132;51.972;4.450;2022-07-29T00:38:12;835.30;;;774.95;;
69835;SDS011;57132;51.972;4.450;2022-07-29T00:40:39;845.03;;;785.08;;
69835;SDS011;57132;51.972;4.450;2022-07-29T00:43:04;838.13;;;778.05;;
69835;SDS011;57132;51.972;4.450;2022-07-29T00:45:30;842.72;;;781.95;;
69835;SDS011;57132;51.972;4.450;2022-07-29T00:47:56;829.45;;;771.08;;
69835;SDS011;57132;51.972;4.450;2022-07-29T00:50:21;828.13;;;769.30;;
69835;SDS011;57132;51.972;4.450;2022-07-29T00:52:47;845.28;;;785.55;;
69835;SDS011;57132;51.972;4.450;2022-07-29T00:55:14;844.70;;;784.42;;
69835;SDS011;57132;51.972;4.450;2022-07-29T00:57:41;855.53;;;794.65;;
69835;SDS011;57132;51.972;4.450;2022-07-29T01:00:08;843.55;;;784.65;;
69835;SDS011;57132;51.972;4.450;2022-07-29T01:02:35;855.30;;;794.35;;
69835;SDS011;57132;51.972;4.450;2022-07-29T01:05:02;849.33;;;788.80;;
69835;SDS011;57132;51.972;4.450;2022-07-29T01:07:28;851.45;;;791.70;;
69835;SDS011;57132;51.972;4.450;2022-07-29T01:09:55;860.83;;;799.80;;
69835;SDS011;57132;51.972;4.450;2022-07-29T01:12:23;864.58;;;803.70;;
69835;SDS011;57132;51.972;4.450;2022-07-29T01:14:50;861.25;;;800.17;;
69835;SDS011;57132;51.972;4.450;2022-07-29T01:19:56;848.38;;;789.08;;
69835;SDS011;57132;51.972;4.450;2022-07-29T01:22:35;854.40;;;794.67;;
69835;SDS011;57132;51.972;4.450;2022-07-29T01:29:16;855.20;;;795.85;;
69835;SDS011;57132;51.972;4.450;2022-07-29T01:31:31;832.25;;;774.75;;
69835;SDS011;57132;51.972;4.450;2022-07-29T01:34:05;861.00;;;800.35;;
69835;SDS011;57132;51.972;4.450;2022-07-29T01:36:35;860.45;;;800.72;;
69835;SDS011;57132;51.972;4.450;2022-07-29T01:39:12;852.53;;;793.20;;
69835;SDS011;57132;51.972;4.450;2022-07-29T01:41:48;855.75;;;795.63;;
69835;SDS011;57132;51.972;4.450;2022-07-29T01:44:22;869.50;;;808.58;;
69835;SDS011;57132;51.972;4.450;2022-07-29T01:46:56;869.50;;;808.55;;
69835;SDS011;57132;51.972;4.450;2022-07-29T01:49:27;861.65;;;801.20;;
69835;SDS011;57132;51.972;4.450;2022-07-29T01:51:56;874.90;;;812.72;;
69835;SDS011;57132;51.972;4.450;2022-07-29T01:54:32;880.67;;;819.10;;
69835;SDS011;57132;51.972;4.450;2022-07-29T01:57:02;871.03;;;810.45;;
69835;SDS011;57132;51.972;4.450;2022-07-29T01:59:29;879.65;;;817.72;;
69835;SDS011;57132;51.972;4.450;2022-07-29T02:01:58;868.78;;;808.10;;
69835;SDS011;57132;51.972;4.450;2022-07-29T02:04:26;869.75;;;809.53;;
69835;SDS011;57132;51.972;4.450;2022-07-29T02:06:54;876.47;;;814.30;;
69835;SDS011;57132;51.972;4.450;2022-07-29T02:09:24;868.40;;;808.20;;
69835;SDS011;57132;51.972;4.450;2022-07-29T02:11:51;882.75;;;820.90;;
69835;SDS011;57132;51.972;4.450;2022-07-29T02:14:19;866.22;;;805.75;;
69835;SDS011;57132;51.972;4.450;2022-07-29T02:16:47;875.28;;;813.50;;
69835;SDS011;57132;51.972;4.450;2022-07-29T02:19:15;872.03;;;810.63;;
69835;SDS011;57132;51.972;4.450;2022-07-29T02:21:43;874.58;;;813.55;;
69835;SDS011;57132;51.972;4.450;2022-07-29T02:24:10;882.88;;;820.65;;
69835;SDS011;57132;51.972;4.450;2022-07-29T02:26:37;884.13;;;822.15;;
69835;SDS011;57132;51.972;4.450;2022-07-29T02:29:04;893.38;;;831.40;;
69835;SDS011;57132;51.972;4.450;2022-07-29T02:31:32;883.92;;;822.25;;
69835;SDS011;57132;51.972;4.450;2022-07-29T02:33:59;875.25;;;814.45;;
69835;SDS011;57132;51.972;4.450;2022-07-29T02:36:31;885.03;;;823.13;;
69835;SDS011;57132;51.972;4.450;2022-07-29T02:38:58;872.58;;;812.42;;
69835;SDS011;57132;51.972;4.450;2022-07-29T02:44:13;897.58;;;834.33;;
69835;SDS011;57132;51.972;4.450;2022-07-29T02:47:24;883.17;;;822.25;;
69835;SDS011;57132;51.972;4.450;2022-07-29T02:57:44;886.22;;;824.85;;
69835;SDS011;57132;51.972;4.450;2022-07-29T03:00:14;899.58;;;837.03;;
69835;SDS011;57132;51.972;4.450;2022-07-29T03:02:42;893.28;;;831.05;;
69835;SDS011;57132;51.972;4.450;2022-07-29T03:05:11;901.90;;;838.72;;
69835;SDS011;57132;51.972;4.450;2022-07-29T03:07:40;873.30;;;812.03;;
69835;SDS011;57132;51.972;4.450;2022-07-29T03:10:09;903.10;;;840.35;;
69835;SDS011;57132;51.972;4.450;2022-07-29T03:12:35;890.92;;;828.20;;
69835;SDS011;57132;51.972;4.450;2022-07-29T03:15:01;907.90;;;844.85;;
69835;SDS011;57132;51.972;4.450;2022-07-29T03:17:27;899.03;;;835.88;;
69835;SDS011;57132;51.972;4.450;2022-07-29T03:19:52;895.13;;;832.88;;
69835;SDS011;57132;51.972;4.450;2022-07-29T03:22:18;902.15;;;839.17;;
69835;SDS011;57132;51.972;4.450;2022-07-29T03:24:44;895.40;;;833.55;;
69835;SDS011;57132;51.972;4.450;2022-07-29T03:27:09;907.13;;;844.25;;
69835;SDS011;57132;51.972;4.450;2022-07-29T03:29:35;903.42;;;840.88;;
69835;SDS011;57132;51.972;4.450;2022-07-29T03:32:02;910.70;;;847.05;;
69835;SDS011;57132;51.972;4.450;2022-07-29T03:34:29;910.08;;;846.38;;
69835;SDS011;57132;51.972;4.450;2022-07-29T03:36:54;915.28;;;850.38;;
69835;SDS011;57132;51.972;4.450;2022-07-29T03:39:20;885.88;;;824.58;;
69835;SDS011;57132;51.972;4.450;2022-07-29T03:41:49;908.95;;;844.60;;
69835;SDS011;57132;51.972;4.450;2022-07-29T03:44:18;898.30;;;835.30;;
69835;SDS011;57132;51.972;4.450;2022-07-29T03:46:45;897.33;;;834.22;;
69835;SDS011;57132;51.972;4.450;2022-07-29T03:49:13;895.40;;;832.00;;
69835;SDS011;57132;51.972;4.450;2022-07-29T03:51:40;896.83;;;833.67;;
69835;SDS011;57132;51.972;4.450;2022-07-29T03:54:06;901.72;;;838.20;;
69835;SDS011;57132;51.972;4.450;2022-07-29T03:56:32;907.15;;;842.15;;
69835;SDS011;57132;51.972;4.450;2022-07-29T03:59:02;887.63;;;825.03;;
69835;SDS011;57132;51.972;4.450;2022-07-29T04:01:28;905.97;;;841.60;;
69835;SDS011;57132;51.972;4.450;2022-07-29T04:03:55;902.88;;;838.78;;
69835;SDS011;57132;51.972;4.450;2022-07-29T04:06:20;907.17;;;841.97;;
69835;SDS011;57132;51.972;4.450;2022-07-29T04:08:46;886.85;;;823.97;;
69835;SDS011;57132;51.972;4.450;2022-07-29T04:11:11;904.83;;;840.05;;
69835;SDS011;57132;51.972;4.450;2022-07-29T04:13:37;898.90;;;834.90;;
69835;SDS011;57132;51.972;4.450;2022-07-29T04:16:03;909.83;;;844.58;;
69835;SDS011;57132;51.972;4.450;2022-07-29T04:18:28;890.88;;;826.97;;
69835;SDS011;57132;51.972;4.450;2022-07-29T04:20:54;903.38;;;838.80;;
69835;SDS011;57132;51.972;4.450;2022-07-29T04:23:19;891.45;;;827.75;;
69835;SDS011;57132;51.972;4.450;2022-07-29T04:25:45;893.35;;;828.88;;
69835;SDS011;57132;51.972;4.450;2022-07-29T04:28:10;898.13;;;834.65;;
69835;SDS011;57132;51.972;4.450;2022-07-29T04:30:36;907.53;;;841.72;;
69835;SDS011;57132;51.972;4.450;2022-07-29T04:33:02;912.72;;;846.97;;
69835;SDS011;57132;51.972;4.450;2022-07-29T04:35:30;912.40;;;846.83;;
69835;SDS011;57132;51.972;4.450;2022-07-29T04:37:55;895.83;;;831.22;;
69835;SDS011;57132;51.972;4.450;2022-07-29T04:40:21;908.92;;;842.58;;
69835;SDS011;57132;51.972;4.450;2022-07-29T04:42:46;908.50;;;842.45;;
69835;SDS011;57132;51.972;4.450;2022-07-29T04:45:12;921.13;;;854.55;;
69835;SDS011;57132;51.972;4.450;2022-07-29T04:47:37;888.63;;;825.05;;
69835;SDS011;57132;51.972;4.450;2022-07-29T04:50:03;918.00;;;851.80;;
69835;SDS011;57132;51.972;4.450;2022-07-29T04:52:30;912.75;;;845.78;;
69835;SDS011;57132;51.972;4.450;2022-07-29T04:54:55;900.15;;;834.72;;
69835;SDS011;57132;51.972;4.450;2022-07-29T04:57:21;927.75;;;860.25;;
69835;SDS011;57132;51.972;4.450;2022-07-29T04:59:46;924.20;;;855.90;;
69835;SDS011;57132;51.972;4.450;2022-07-29T05:02:11;929.33;;;860.13;;
69835;SDS011;57132;51.972;4.450;2022-07-29T05:04:36;928.70;;;859.60;;
69835;SDS011;57132;51.972;4.450;2022-07-29T05:07:02;934.97;;;865.40;;
69835;SDS011;57132;51.972;4.450;2022-07-29T05:09:27;915.88;;;848.25;;
69835;SDS011;57132;51.972;4.450;2022-07-29T05:11:52;982.97;;;896.40;;
69835;SDS011;57132;51.972;4.450;2022-07-29T05:14:18;950.85;;;878.88;;
69835;SDS011;57132;51.972;4.450;2022-07-29T05:16:43;940.50;;;869.33;;
69835;SDS011;57132;51.972;4.450;2022-07-29T05:19:08;938.47;;;865.83;;
69835;SDS011;57132;51.972;4.450;2022-07-29T05:21:34;994.45;;;907.45;;
69835;SDS011;57132;51.972;4.450;2022-07-29T05:23:59;888.42;;;815.63;;
69835;SDS011;57132;51.972;4.450;2022-07-29T05:26:25;779.70;;;709.45;;
69835;SDS011;57132;51.972;4.450;2022-07-29T05:28:50;1999.90;;;999.90;;
69835;SDS011;57132;51.972;4.450;2022-07-29T05:31:15;1999.90;;;999.90;;
69835;SDS011;57132;51.972;4.450;2022-07-29T05:33:41;1999.90;;;999.90;;
69835;SDS011;57132;51.972;4.450;2022-07-29T05:36:06;1999.90;;;999.90;;
69835;SDS011;57132;51.972;4.450;2022-07-29T05:38:33;1999.90;;;999.90;;
69835;SDS011;57132;51.972;4.450;2022-07-29T05:40:58;1999.90;;;999.90;;
69835;SDS011;57132;51.972;4.450;2022-07-29T05:43:25;1999.90;;;999.90;;
69835;SDS011;57132;51.972;4.450;2022-07-29T05:45:51;1999.90;;;999.90;;
69835;SDS011;57132;51.972;4.450;2022-07-29T05:48:16;1999.90;;;999.90;;
69835;SDS011;57132;51.972;4.450;2022-07-29T05:50:42;1999.90;;;999.90;;
69835;SDS011;57132;51.972;4.450;2022-07-29T05:53:07;1999.90;;;999.90;;
69835;SDS011;57132;51.972;4.450;2022-07-29T05:55:32;1999.90;;;999.90;;
69835;SDS011;57132;51.972;4.450;2022-07-29T05:57:57;1999.90;;;999.90;;
69835;SDS011;57132;51.972;4.450;2022-07-29T06:00:23;1585.18;;;804.35;;
69835;SDS011;57132;51.972;4.450;2022-07-29T06:02:48;1999.90;;;999.90;;
69835;SDS011;57132;51.972;4.450;2022-07-29T06:05:13;1999.90;;;999.90;;
69835;SDS011;57132;51.972;4.450;2022-07-29T06:07:40;1999.90;;;999.90;;
69835;SDS011;57132;51.972;4.450;2022-07-29T06:10:05;1999.90;;;999.90;;
69835;SDS011;57132;51.972;4.450;2022-07-29T06:12:31;1999.90;;;999.90;;
69835;SDS011;57132;51.972;4.450;2022-07-29T06:14:57;1999.90;;;999.90;;
69835;SDS011;57132;51.972;4.450;2022-07-29T06:17:22;1999.90;;;999.90;;
69835;SDS011;57132;51.972;4.450;2022-07-29T06:19:48;1999.90;;;999.90;;
69835;SDS011;57132;51.972;4.450;2022-07-29T06:22:14;1999.90;;;999.90;;
69835;SDS011;57132;51.972;4.450;2022-07-29T06:24:41;1999.90;;;999.90;;
69835;SDS011;57132;51.972;4.450;2022-07-29T06:27:08;866.72;;;787.30;;
69835;SDS011;57132;51.972;4.450;2022-07-29T06:29:34;1999.90;;;999.90;;
69835;SDS011;57132;51.972;4.450;2022-07-29T06:32:00;1999.90;;;999.90;;
69835;SDS011;57132;51.972;4.450;2022-07-29T06:34:25;1999.90;;;999.90;;
69835;SDS011;57132;51.972;4.450;2022-07-29T06:36:50;1999.90;;;999.90;;
69835;SDS011;57132;51.972;4.450;2022-07-29T06:39:17;1999.90;;;999.90;;
69835;SDS011;57132;51.972;4.450;2022-07-29T06:41:46;1999.90;;;999.90;;
69835;SDS011;57132;51.972;4.450;2022-07-29T06:44:13;1006.40;;;905.72;;
69835;SDS011;57132;51.972;4.450;2022-07-29T06:46:39;914.70;;;834.17;;
69835;SDS011;57132;51.972;4.450;2022-07-29T06:49:04;901.20;;;822.60;;
69835;SDS011;57132;51.972;4.450;2022-07-29T06:51:30;880.00;;;805.92;;
69835;SDS011;57132;51.972;4.450;2022-07-29T06:53:55;859.47;;;783.85;;
69835;SDS011;57132;51.972;4.450;2022-07-29T06:56:22;874.38;;;793.20;;
69835;SDS011;57132;51.972;4.450;2022-07-29T06:58:48;888.65;;;802.88;;
69835;SDS011;57132;51.972;4.450;2022-07-29T07:01:13;899.65;;;813.00;;
69835;SDS011;57132;51.972;4.450;2022-07-29T07:03:38;892.15;;;806.58;;
69835;SDS011;57132;51.972;4.450;2022-07-29T07:06:04;907.50;;;819.95;;
69835;SDS011;57132;51.972;4.450;2022-07-29T07:08:29;928.55;;;836.58;;
69835;SDS011;57132;51.972;4.450;2022-07-29T07:10:55;912.90;;;824.67;;
69835;SDS011;57132;51.972;4.450;2022-07-29T07:13:21;870.65;;;784.20;;
69835;SDS011;57132;51.972;4.450;2022-07-29T07:15:47;834.13;;;755.08;;
69835;SDS011;57132;51.972;4.450;2022-07-29T07:18:13;833.25;;;758.47;;
69835;SDS011;57132;51.972;4.450;2022-07-29T07:20:39;836.03;;;764.53;;
69835;SDS011;57132;51.972;4.450;2022-07-29T07:23:05;842.83;;;772.05;;
69835;SDS011;57132;51.972;4.450;2022-07-29T07:25:31;905.85;;;829.03;;
69835;SDS011;57132;51.972;4.450;2022-07-29T07:27:56;801.92;;;736.33;;
69835;SDS011;57132;51.972;4.450;2022-07-29T07:30:22;806.83;;;739.45;;
69835;SDS011;57132;51.972;4.450;2022-07-29T07:32:47;791.90;;;721.25;;
69835;SDS011;57132;51.972;4.450;2022-07-29T07:35:12;760.60;;;693.92;;
69835;SDS011;57132;51.972;4.450;2022-07-29T07:37:38;793.15;;;725.55;;
69835;SDS011;57132;51.972;4.450;2022-07-29T07:40:08;849.13;;;781.75;;
69835;SDS011;57132;51.972;4.450;2022-07-29T07:42:34;797.95;;;732.03;;
69835;SDS011;57132;51.972;4.450;2022-07-29T07:44:59;863.78;;;791.60;;
69835;SDS011;57132;51.972;4.450;2022-07-29T07:47:25;839.30;;;771.47;;
69835;SDS011;57132;51.972;4.450;2022-07-29T07:49:51;843.63;;;775.20;;
69835;SDS011;57132;51.972;4.450;2022-07-29T07:52:17;838.67;;;769.70;;
69835;SDS011;57132;51.972;4.450;2022-07-29T07:54:44;848.40;;;780.00;;
69835;SDS011;57132;51.972;4.450;2022-07-29T07:57:10;899.17;;;827.83;;
69835;SDS011;57132;51.972;4.450;2022-07-29T07:59:36;889.28;;;820.50;;
69835;SDS011;57132;51.972;4.450;2022-07-29T08:02:02;920.60;;;847.28;;
69835;SDS011;57132;51.972;4.450;2022-07-29T08:04:27;847.83;;;780.58;;
69835;SDS011;57132;51.972;4.450;2022-07-29T08:06:53;825.20;;;758.67;;
69835;SDS011;57132;51.972;4.450;2022-07-29T08:09:21;874.45;;;803.72;;
69835;SDS011;57132;51.972;4.450;2022-07-29T08:11:47;869.83;;;798.38;;
69835;SDS011;57132;51.972;4.450;2022-07-29T08:14:12;832.85;;;765.38;;
69835;SDS011;57132;51.972;4.450;2022-07-29T08:16:38;800.50;;;735.47;;
69835;SDS011;57132;51.972;4.450;2022-07-29T08:19:05;772.47;;;705.78;;
69835;SDS011;57132;51.972;4.450;2022-07-29T08:21:30;741.65;;;675.55;;
69835;SDS011;57132;51.972;4.450;2022-07-29T08:23:56;780.80;;;709.15;;
69835;SDS011;57132;51.972;4.450;2022-07-29T08:26:42;770.58;;;698.85;;
69835;SDS011;57132;51.972;4.450;2022-07-29T08:29:08;747.97;;;678.35;;
69835;SDS011;57132;51.972;4.450;2022-07-29T08:31:34;768.53;;;696.03;;
69835;SDS011;57132;51.972;4.450;2022-07-29T08:33:59;775.92;;;708.58;;
69835;SDS011;57132;51.972;4.450;2022-07-29T08:36:25;774.70;;;705.38;;
69835;SDS011;57132;51.972;4.450;2022-07-29T08:38:51;773.03;;;706.55;;
69835;SDS011;57132;51.972;4.450;2022-07-29T08:41:18;824.17;;;756.13;;
69835;SDS011;57132;51.972;4.450;2022-07-29T08:43:44;908.60;;;833.90;;
69835;SDS011;57132;51.972;4.450;2022-07-29T08:46:10;880.08;;;810.53;;
69835;SDS011;57132;51.972;4.450;2022-07-29T08:48:35;908.80;;;836.38;;
69835;SDS011;57132;51.972;4.450;2022-07-29T08:51:01;939.58;;;862.10;;
69835;SDS011;57132;51.972;4.450;2022-07-29T08:53:27;951.83;;;873.28;;
69835;SDS011;57132;51.972;4.450;2022-07-29T08:55:53;960.53;;;879.95;;
69835;SDS011;57132;51.972;4.450;2022-07-29T08:58:19;934.95;;;857.20;;
69835;SDS011;57132;51.972;4.450;2022-07-29T09:00:51;949.30;;;870.85;;
69835;SDS011;57132;51.972;4.450;2022-07-29T09:03:19;918.55;;;843.50;;
69835;SDS011;57132;51.972;4.450;2022-07-29T09:05:46;980.42;;;895.55;;
69835;SDS011;57132;51.972;4.450;2022-07-29T09:08:12;962.63;;;881.30;;
69835;SDS011;57132;51.972;4.450;2022-07-29T09:10:39;938.17;;;857.63;;
69835;SDS011;57132;51.972;4.450;2022-07-29T09:13:04;906.05;;;834.05;;
69835;SDS011;57132;51.972;4.450;2022-07-29T09:15:29;883.33;;;813.05;;
69835;SDS011;57132;51.972;4.450;2022-07-29T09:17:55;911.58;;;838.63;;
69835;SDS011;57132;51.972;4.450;2022-07-29T09:20:21;887.72;;;816.97;;
69835;SDS011;57132;51.972;4.450;2022-07-29T09:22:48;901.78;;;828.63;;
69835;SDS011;57132;51.972;4.450;2022-07-29T09:25:15;904.83;;;831.47;;
69835;SDS011;57132;51.972;4.450;2022-07-29T09:30:32;884.67;;;814.22;;
69835;SDS011;57132;51.972;4.450;2022-07-29T09:32:59;908.65;;;834.25;;
69835;SDS011;57132;51.972;4.450;2022-07-29T09:35:26;923.78;;;846.85;;
69835;SDS011;57132;51.972;4.450;2022-07-29T09:37:52;957.67;;;877.40;;
69835;SDS011;57132;51.972;4.450;2022-07-29T09:40:28;967.47;;;882.25;;
69835;SDS011;57132;51.972;4.450;2022-07-29T09:42:54;939.72;;;860.80;;
69835;SDS011;57132;51.972;4.450;2022-07-29T09:45:26;972.95;;;885.30;;
69835;SDS011;57132;51.972;4.450;2022-07-29T09:47:53;895.80;;;820.95;;
69835;SDS011;57132;51.972;4.450;2022-07-29T09:50:19;850.97;;;780.28;;
69835;SDS011;57132;51.972;4.450;2022-07-29T09:52:51;841.67;;;770.42;;
69835;SDS011;57132;51.972;4.450;2022-07-29T09:55:20;817.55;;;746.33;;
69835;SDS011;57132;51.972;4.450;2022-07-29T09:57:46;869.08;;;792.88;;
69835;SDS011;57132;51.972;4.450;2022-07-29T10:00:13;859.55;;;786.65;;
69835;SDS011;57132;51.972;4.450;2022-07-29T10:02:41;901.80;;;827.03;;
69835;SDS011;57132;51.972;4.450;2022-07-29T10:05:30;865.28;;;795.38;;
69835;SDS011;57132;51.972;4.450;2022-07-29T10:07:55;927.38;;;846.78;;
69835;SDS011;57132;51.972;4.450;2022-07-29T10:12:52;912.95;;;836.88;;
69835;SDS011;57132;51.972;4.450;2022-07-29T10:15:18;940.17;;;860.70;;
69835;SDS011;57132;51.972;4.450;2022-07-29T10:17:43;909.78;;;835.88;;
69835;SDS011;57132;51.972;4.450;2022-07-29T10:20:10;907.80;;;834.63;;
69835;SDS011;57132;51.972;4.450;2022-07-29T10:22:35;919.00;;;845.47;;
69835;SDS011;57132;51.972;4.450;2022-07-29T10:25:01;905.10;;;831.20;;
69835;SDS011;57132;51.972;4.450;2022-07-29T10:27:27;918.03;;;843.42;;
69835;SDS011;57132;51.972;4.450;2022-07-29T10:29:53;877.85;;;808.25;;
69835;SDS011;57132;51.972;4.450;2022-07-29T10:32:34;894.50;;;823.25;;
69835;SDS011;57132;51.972;4.450;2022-07-29T10:43:20;906.53;;;835.47;;
69835;SDS011;57132;51.972;4.450;2022-07-29T10:45:49;847.47;;;779.75;;
69835;SDS011;57132;51.972;4.450;2022-07-29T10:48:21;880.97;;;811.13;;
69835;SDS011;57132;51.972;4.450;2022-07-29T10:51:02;892.45;;;819.88;;
69835;SDS011;57132;51.972;4.450;2022-07-29T10:54:02;807.87;;;745.30;;
69835;SDS011;57132;51.972;4.450;2022-07-29T10:56:25;874.83;;;798.72;;
69835;SDS011;57132;51.972;4.450;2022-07-29T11:01:46;830.38;;;759.78;;
69835;SDS011;57132;51.972;4.450;2022-07-29T11:04:13;864.05;;;794.05;;
69835;SDS011;57132;51.972;4.450;2022-07-29T11:09:29;814.67;;;736.97;;
69835;SDS011;57132;51.972;4.450;2022-07-29T11:11:55;823.08;;;748.45;;
69835;SDS011;57132;51.972;4.450;2022-07-29T11:17:17;841.05;;;750.78;;
69835;SDS011;57132;51.972;4.450;2022-07-29T11:19:42;847.70;;;753.55;;
69835;SDS011;57132;51.972;4.450;2022-07-29T11:22:09;836.10;;;752.25;;
69835;SDS011;57132;51.972;4.450;2022-07-29T11:24:35;854.42;;;775.05;;
69835;SDS011;57132;51.972;4.450;2022-07-29T11:29:38;817.45;;;734.13;;
69835;SDS011;57132;51.972;4.450;2022-07-29T11:32:15;827.55;;;746.10;;
69835;SDS011;57132;51.972;4.450;2022-07-29T11:34:42;817.10;;;733.78;;
69835;SDS011;57132;51.972;4.450;2022-07-29T11:47:24;869.92;;;771.65;;
69835;SDS011;57132;51.972;4.450;2022-07-29T11:49:50;865.60;;;772.47;;
69835;SDS011;57132;51.972;4.450;2022-07-29T11:52:17;880.17;;;779.20;;
69835;SDS011;57132;51.972;4.450;2022-07-29T11:54:44;827.88;;;739.00;;
69835;SDS011;57132;51.972;4.450;2022-07-29T11:57:12;878.08;;;772.33;;
69835;SDS011;57132;51.972;4.450;2022-07-29T11:59:41;869.53;;;758.10;;
69835;SDS011;57132;51.972;4.450;2022-07-29T12:02:08;840.05;;;740.10;;
69835;SDS011;57132;51.972;4.450;2022-07-29T12:04:34;868.08;;;750.55;;
69835;SDS011;57132;51.972;4.450;2022-07-29T12:07:12;878.15;;;749.97;;
69835;SDS011;57132;51.972;4.450;2022-07-29T12:09:38;810.90;;;719.67;;
69835;SDS011;57132;51.972;4.450;2022-07-29T12:12:03;774.53;;;694.03;;
69835;SDS011;57132;51.972;4.450;2022-07-29T12:14:30;768.42;;;688.80;;
69835;SDS011;57132;51.972;4.450;2022-07-29T12:16:57;784.55;;;701.50;;
69835;SDS011;57132;51.972;4.450;2022-07-29T12:19:23;799.17;;;714.58;;
69835;SDS011;57132;51.972;4.450;2022-07-29T12:21:52;796.80;;;713.00;;
69835;SDS011;57132;51.972;4.450;2022-07-29T12:24:24;793.00;;;712.17;;
69835;SDS011;57132;51.972;4.450;2022-07-29T12:26:53;803.22;;;723.45;;
69835;SDS011;57132;51.972;4.450;2022-07-29T12:29:21;792.25;;;712.80;;
69835;SDS011;57132;51.972;4.450;2022-07-29T12:31:51;796.65;;;714.25;;
69835;SDS011;57132;51.972;4.450;2022-07-29T12:34:19;793.15;;;714.38;;
69835;SDS011;57132;51.972;4.450;2022-07-29T12:36:47;789.22;;;713.05;;
69835;SDS011;57132;51.972;4.450;2022-07-29T12:39:14;761.13;;;685.08;;
69835;SDS011;57132;51.972;4.450;2022-07-29T12:41:42;772.63;;;699.55;;
69835;SDS011;57132;51.972;4.450;2022-07-29T12:44:07;751.90;;;681.78;;
69835;SDS011;57132;51.972;4.450;2022-07-29T12:46:33;765.50;;;692.35;;
69835;SDS011;57132;51.972;4.450;2022-07-29T12:48:58;793.63;;;721.78;;
69835;SDS011;57132;51.972;4.450;2022-07-29T12:54:04;777.72;;;706.08;;
69835;SDS011;57132;51.972;4.450;2022-07-29T12:56:39;801.33;;;721.88;;
69835;SDS011;57132;51.972;4.450;2022-07-29T12:59:18;770.13;;;700.22;;
69835;SDS011;57132;51.972;4.450;2022-07-29T13:01:45;821.95;;;753.95;;
69835;SDS011;57132;51.972;4.450;2022-07-29T13:04:23;778.40;;;705.67;;
69835;SDS011;57132;51.972;4.450;2022-07-29T13:07:07;805.45;;;729.17;;
69835;SDS011;57132;51.972;4.450;2022-07-29T13:09:42;834.17;;;757.17;;
69835;SDS011;57132;51.972;4.450;2022-07-29T13:12:11;813.90;;;739.47;;
69835;SDS011;57132;51.972;4.450;2022-07-29T13:17:11;827.42;;;747.25;;
69835;SDS011;57132;51.972;4.450;2022-07-29T13:19:41;814.00;;;736.00;;
69835;SDS011;57132;51.972;4.450;2022-07-29T13:22:12;845.22;;;762.90;;
69835;SDS011;57132;51.972;4.450;2022-07-29T13:24:48;833.42;;;748.38;;
69835;SDS011;57132;51.972;4.450;2022-07-29T13:27:20;852.80;;;769.78;;
69835;SDS011;57132;51.972;4.450;2022-07-29T13:29:47;844.25;;;759.97;;
69835;SDS011;57132;51.972;4.450;2022-07-29T13:32:16;848.33;;;766.25;;
69835;SDS011;57132;51.972;4.450;2022-07-29T13:34:41;844.38;;;763.95;;
69835;SDS011;57132;51.972;4.450;2022-07-29T13:37:07;850.30;;;767.88;;
69835;SDS011;57132;51.972;4.450;2022-07-29T13:39:32;844.75;;;760.58;;
69835;SDS011;57132;51.972;4.450;2022-07-29T13:41:58;842.60;;;757.55;;
69835;SDS011;57132;51.972;4.450;2022-07-29T13:44:23;871.70;;;785.38;;
69835;SDS011;57132;51.972;4.450;2022-07-29T13:46:48;885.63;;;807.88;;
69835;SDS011;57132;51.972;4.450;2022-07-29T13:49:14;879.30;;;802.28;;
69835;SDS011;57132;51.972;4.450;2022-07-29T13:51:40;876.38;;;795.53;;
69835;SDS011;57132;51.972;4.450;2022-07-29T13:54:05;876.10;;;789.17;;
69835;SDS011;57132;51.972;4.450;2022-07-29T13:56:31;887.03;;;804.90;;
69835;SDS011;57132;51.972;4.450;2022-07-29T13:58:56;886.63;;;810.35;;
69835;SDS011;57132;51.972;4.450;2022-07-29T14:01:22;893.15;;;810.42;;
69835;SDS011;57132;51.972;4.450;2022-07-29T14:03:47;909.42;;;821.03;;
69835;SDS011;57132;51.972;4.450;2022-07-29T14:06:13;905.85;;;820.78;;
69835;SDS011;57132;51.972;4.450;2022-07-29T14:08:38;917.85;;;828.35;;
69835;SDS011;57132;51.972;4.450;2022-07-29T14:11:04;918.05;;;830.25;;
69835;SDS011;57132;51.972;4.450;2022-07-29T14:13:30;921.20;;;831.38;;
69835;SDS011;57132;51.972;4.450;2022-07-29T14:15:55;923.47;;;834.42;;
69835;SDS011;57132;51.972;4.450;2022-07-29T14:18:21;920.90;;;834.70;;
69835;SDS011;57132;51.972;4.450;2022-07-29T14:20:46;903.85;;;823.65;;
69835;SDS011;57132;51.972;4.450;2022-07-29T14:23:11;906.90;;;829.35;;
69835;SDS011;57132;51.972;4.450;2022-07-29T14:25:37;901.63;;;822.70;;
69835;SDS011;57132;51.972;4.450;2022-07-29T14:28:02;909.20;;;829.65;;
69835;SDS011;57132;51.972;4.450;2022-07-29T14:30:27;919.40;;;834.88;;
69835;SDS011;57132;51.972;4.450;2022-07-29T14:32:52;923.40;;;838.70;;
69835;SDS011;57132;51.972;4.450;2022-07-29T14:35:18;914.92;;;834.80;;
69835;SDS011;57132;51.972;4.450;2022-07-29T14:37:44;908.65;;;830.03;;
69835;SDS011;57132;51.972;4.450;2022-07-29T14:40:09;912.58;;;834.65;;
69835;SDS011;57132;51.972;4.450;2022-07-29T14:42:35;909.70;;;830.15;;
69835;SDS011;57132;51.972;4.450;2022-07-29T14:45:03;912.92;;;830.60;;
69835;SDS011;57132;51.972;4.450;2022-07-29T14:47:29;906.55;;;830.42;;
69835;SDS011;57132;51.972;4.450;2022-07-29T14:49:55;927.42;;;844.53;;
69835;SDS011;57132;51.972;4.450;2022-07-29T14:52:20;911.85;;;833.83;;
69835;SDS011;57132;51.972;4.450;2022-07-29T14:54:45;910.50;;;833.88;;